Terminal Aerodrome Forecast
Issued by NWS Cleveland, OH

Home | Current Version | Previous Version | Graphics & Text | Print | Product List | Glossary On
Versions: 1 2 3 4 5 6 7 8 9 10 11 12 13 14 15 16 17 18 19 20 21 22 23 24 25 26 27 28
771
FTUS41 KCLE 281459 AAB
TAFCLE
TAF AMD
KCLE 281459Z 2815/2918 04008KT P6SM -SHRA OVC045
     FM281700 06012KT P6SM -SHRA OVC028
     FM281900 04012KT P6SM VCSH BKN018
     FM290200 03007KT 5SM BR OVC009
     FM291400 01010KT P6SM OVC014=

USA.gov is the U.S. government's official web portal to all federal, state and local government web resources and services.